Αναφορές METAR Αεροδρομίων

 

LGTS - THESSALONIKI - GREECE
Ενημερώθηκε: 06/04/2020 03:50
Ασθενής βροχή, Σχεδόν νεφελώδης
Ασθενής βροχή, Σχεδόν νεφελώδης
 Ανεμος από varies
Ανεμος: varies 4 km/h
Θερμοκρασία: 9°C
Σημείο Δρόσου: 8°C
Υγρασία: 94%
Βαρόμετρο: 1023 hPa
Περίληψη: Ασθενής βροχή
Clouds: Σχεδόν νεφελώδης
Visibility: 10 km
Cloud details: Αραιές Νεφώσεις 305 m
Σχεδόν νεφελώδης 762 m
2020/04/06 00:50 LGTS 060050Z VRB02KT 9999 -RA FEW010 BKN025 09/08 Q1023 NOSIG
LGLR - LARTISA - GREECE
Ενημερώθηκε: 06/04/2020 03:50
Ασθενής βροχή, Συννεφιά
Ασθενής βροχή, Συννεφιά
 Ανεμος από ΒΒΑ
Ανεμος: ΒΒΑ 13 km/h
Θερμοκρασία: 9°C
Δείκτη Ψύχρας: 7°C
Σημείο Δρόσου: 6°C
Υγρασία: 82%
Βαρόμετρο: 1022 hPa
Περίληψη: Ασθενής βροχή
Clouds: Συννεφιά
Visibility: 10 km
Cloud details: Αραιές Νεφώσεις 457 m
Σχεδόν νεφελώδης 762 m
Συννεφιά 2438 m
2020/04/06 00:50 LGLR 060050Z 02007KT 9999 -RA FEW015 BKN025 OVC080 09/06 Q1022 BLU
 
LGKZ - KOZANI - GREECE
Ενημερώθηκε: 06/04/2020 04:20
Ασθενής βροχή
Ασθενής βροχή
 Ανεμος από Β
Ανεμος: Β 11 km/h
Θερμοκρασία: 5°C
Δείκτη Ψύχρας: 2°C
Σημείο Δρόσου: 4°C
Υγρασία: 93%
Βαρόμετρο: 1023 hPa
Περίληψη: Ασθενής βροχή
2020/04/06 01:20 LGKZ 060120Z AUTO 35006KT 320V040 //// -RA ////// 05/04 Q1023 RE//
LGKV - KAVALA - GREECE
Ενημερώθηκε: 05/04/2020 20:50
NOT Current
Συννεφιά
Συννεφιά
 Ανεμος από ΒΑ
Ανεμος: ΒΑ 43 km/h, Ριπή: 69 km/h
Θερμοκρασία: 11°C
Σημείο Δρόσου: 2°C
Υγρασία: 54%
Βαρόμετρο: 1017 hPa
Clouds: Συννεφιά
Visibility: 10 km
Cloud details: Αραιές Νεφώσεις 610 m
Σχεδόν νεφελώδης 1219 m
Συννεφιά 1829 m
2020/04/05 17:50 LGKV 051750Z 04023G37KT 9999 FEW020 BKN040 OVC060 11/02 Q1017
 
LGIO - IOANNINA - GREECE
Ενημερώθηκε: 06/04/2020 04:20

 Ανεμος από ΒΑ
Ανεμος: ΒΑ 15 km/h
Θερμοκρασία: 11°C
Σημείο Δρόσου: 0°C
Υγρασία: 47%
Βαρόμετρο: 1018 hPa
2020/04/06 01:20 LGIO 060120Z AUTO 05008KT 180V160 //// // ////// 11/00 Q1018 RE//
LGBL - BOLOS - GREECE
Ενημερώθηκε: 06/04/2020 03:50
Ασθενής βροχή, Συννεφιά
Ασθενής βροχή, Συννεφιά
 Ανεμος από Δ
Ανεμος: Δ 9 km/h
Θερμοκρασία: 8°C
Δείκτη Ψύχρας: 6°C
Σημείο Δρόσου: 7°C
Υγρασία: 93%
Βαρόμετρο: 1022 hPa
Περίληψη: Ασθενής βροχή
Clouds: Συννεφιά
Visibility: 7 km
Cloud details: Μερικώς νεφελώδης 305 m
Συννεφιά 762 m
2020/04/06 00:50 LGBL 060050Z 28005KT 7000 -RA SCT010 OVC025 08/07 Q1022
 
LGMT - MITILINI - GREECE
Ενημερώθηκε: 06/04/2020 03:50
Μερικώς νεφελώδης
Μερικώς νεφελώδης
 Ανεμος από ΒΒΑ
Ανεμος: ΒΒΑ 26 km/h
Θερμοκρασία: 13°C
Σημείο Δρόσου: 10°C
Υγρασία: 82%
Βαρόμετρο: 1014 hPa
Clouds: Μερικώς νεφελώδης
Visibility: 10 km
Cloud details: Μερικώς νεφελώδης 762 m
2020/04/06 00:50 LGMT 060050Z 02014KT 9999 SCT025 13/10 Q1014
LGAV - ATHENS - GREECE
Ενημερώθηκε: 06/04/2020 04:20
Σχεδόν νεφελώδης
Σχεδόν νεφελώδης
 Ανεμος από Β
Ανεμος: Β 24 km/h
Θερμοκρασία: 10°C
Δείκτη Ψύχρας: 7°C
Σημείο Δρόσου: 5°C
Υγρασία: 71%
Βαρόμετρο: 1017 hPa
Clouds: Σχεδόν νεφελώδης
Visibility: 10 km
Cloud details: Αραιές Νεφώσεις 457 m
Σχεδόν νεφελώδης 914 m
Σχεδόν νεφελώδης 2134 m
2020/04/06 01:20 LGAV 060120Z 36013KT 9999 FEW015 BKN030 BKN070 10/05 Q1017 NOSIG
 
LGRP - RODOS - GREECE
Ενημερώθηκε: 06/04/2020 03:50
Μερικώς νεφελώδης
Μερικώς νεφελώδης
 Ανεμος από ΝΔ
Ανεμος: ΝΔ 13 km/h
Θερμοκρασία: 15°C
Σημείο Δρόσου: 13°C
Υγρασία: 88%
Βαρόμετρο: 1012 hPa
Clouds: Μερικώς νεφελώδης
Visibility: 10 km
Cloud details: Μερικώς νεφελώδης 610 m
2020/04/06 00:50 LGRP 060050Z 22007KT 9999 SCT020 15/13 Q1012 NOSIG
LGIR - HRAKLIO/KRITI - GREECE
Ενημερώθηκε: 06/04/2020 04:20
Σχεδόν νεφελώδης
Σχεδόν νεφελώδης
 Ανεμος από ΒΔ
Ανεμος: ΒΔ 26 km/h
Θερμοκρασία: 14°C
Σημείο Δρόσου: 11°C
Υγρασία: 82%
Βαρόμετρο: 1014 hPa
Clouds: Σχεδόν νεφελώδης
Visibility: 10 km
Cloud details: Αραιές Νεφώσεις 549 m
Σχεδόν νεφελώδης 914 m
2020/04/06 01:20 LGIR 060120Z 31014KT 9999 FEW018 BKN030 14/11 Q1014 NOSIG
 
LGMK - MIKONOS - GREECE
Ενημερώθηκε: 05/04/2020 17:20
NOT Current
Μερικώς νεφελώδης
Μερικώς νεφελώδης
 Ανεμος από ΒΔ
Ανεμος: ΒΔ 15 km/h
Θερμοκρασία: 17°C
Σημείο Δρόσου: 13°C
Υγρασία: 77%
Βαρόμετρο: 1007 hPa
Clouds: Μερικώς νεφελώδης
Visibility: 10 km
Cloud details: Αραιές Νεφώσεις 305 m
Μερικώς νεφελώδης 610 m
2020/04/05 14:20 LGMK 051420Z 32008KT 9999 FEW010 SCT020 17/13 Q1007
LGKR - KERKIRA - GREECE
Ενημερώθηκε: 06/04/2020 04:20
Μερικώς νεφελώδης
Μερικώς νεφελώδης
 Ανεμος από Α
Ανεμος: Α 11 km/h
Θερμοκρασία: 15°C
Σημείο Δρόσου: 8°C
Υγρασία: 63%
Βαρόμετρο: 1015 hPa
Clouds: Μερικώς νεφελώδης
Visibility: 10 km
Cloud details: Αραιές Νεφώσεις 1067 m
Μερικώς νεφελώδης 2438 m
2020/04/06 01:20 LGKR 060120Z 08006KT 9999 FEW035 SCT080 15/08 Q1015 NOSIG